Погода Джамалпурна неделю

Дакка, Бангладеш

28 января-03 февраля
  • 28января
    Сегодня
    +15°
    +27°
    Ясно и безоблачно
    ВремяПогодаТемператураВлажностьДавлениеВетер, м/сВероятность осадков
    00:00Ясно и безоблачно+18°C95 %759 мм2.0 м/с2 %
    03:00Ясно и безоблачно+18°C96 %758 мм1.9 м/с2 %
    06:00Ясно и безоблачно+16°C98 %759 мм1.9 м/с2 %
    09:00Ясно и безоблачно+19°C86 %761 мм1.6 м/с2 %
    12:00Ясно и безоблачно+24°C65 %759 мм1.9 м/с2 %
    15:00Ясно и безоблачно+26°C59 %757 мм1.9 м/с2 %
    18:00Ясно и безоблачно+21°C83 %757 мм2.0 м/с2 %
    21:00Ясно и безоблачно+19°C90 %759 мм2.2 м/с2 %
  • 29января
    Воскресенье
    +14°
    +27°
    Ясно и безоблачно
    ВремяПогодаТемператураВлажностьДавлениеВетер, м/сВероятность осадков
    00:00Ясно и безоблачно+17°C93 %759 мм2.2 м/с2 %
    03:00Ясно и безоблачно+19°C94 %759 мм2.5 м/с2 %
    06:00Ясно и безоблачно+16°C96 %759 мм2.4 м/с2 %
    09:00Ясно и безоблачно+18°C86 %761 мм1.7 м/с2 %
    12:00Ясно и безоблачно+24°C63 %760 мм0.9 м/с2 %
    15:00Ясно и безоблачно+27°C54 %758 мм0.6 м/с2 %
    18:00Ясно и безоблачно+22°C74 %758 мм2.1 м/с2 %
    21:00Ясно и безоблачно+19°C88 %760 мм2.2 м/с2 %
  • 30января
    Понедельник
    +15°
    +28°
    Ясно и безоблачно
    ВремяПогодаТемператураВлажностьДавлениеВетер, м/сВероятность осадков
    00:00Ясно и безоблачно+18°C91 %760 мм1.9 м/с2 %
    03:00Ясно и безоблачно+18°C93 %759 мм2.3 м/с2 %
    06:00Ясно и безоблачно+15°C95 %760 мм2.1 м/с2 %
    09:00Ясно и безоблачно+18°C81 %761 мм0.7 м/с2 %
    12:00Ясно и безоблачно+25°C57 %760 мм1.2 м/с2 %
    15:00Ясно и безоблачно+27°C46 %758 мм0.4 м/с2 %
    18:00Ясно и безоблачно+24°C64 %758 мм1.6 м/с2 %
    21:00Ясно и безоблачно+21°C70 %759 мм1.6 м/с2 %
  • 31января
    Вторник
    +15°
    +28°
    Ясно и безоблачно
    ВремяПогодаТемператураВлажностьДавлениеВетер, м/сВероятность осадков
    00:00Ясно и безоблачно+18°C87 %760 мм1.5 м/с2 %
    03:00Ясно и безоблачно+17°C97 %759 мм2.4 м/с2 %
    06:00Небольшая облачность+16°C99 %759 мм1.2 м/с2 %
    09:00Практически безоблачно+17°C91 %760 мм0.3 м/с2 %
    12:00Ясно и безоблачно+24°C62 %759 мм1.1 м/с2 %
    15:00Ясно и безоблачно+27°C53 %757 мм1.8 м/с2 %
    18:00Ясно и безоблачно+23°C74 %757 мм2.0 м/с2 %
    21:00Ясно и безоблачно+20°C78 %758 мм2.3 м/с2 %
Мы используем cookies
Соглашаюсь